sensor_id;sensor_type;location;lat;lon;timestamp;P1;durP1;ratioP1;P2;durP2;ratioP2
22254;SDS011;11296;42.684;23.322;2023-03-12T00:00:49;7.47;;;2.57;;
22254;SDS011;11296;42.684;23.322;2023-03-12T00:03:17;5.83;;;2.30;;
22254;SDS011;11296;42.684;23.322;2023-03-12T00:05:43;4.33;;;2.47;;
22254;SDS011;11296;42.684;23.322;2023-03-12T00:08:09;5.17;;;2.63;;
22254;SDS011;11296;42.684;23.322;2023-03-12T00:10:37;4.63;;;2.50;;
22254;SDS011;11296;42.684;23.322;2023-03-12T00:13:03;3.20;;;2.43;;
22254;SDS011;11296;42.684;23.322;2023-03-12T00:15:29;3.70;;;2.43;;
22254;SDS011;11296;42.684;23.322;2023-03-12T00:17:55;3.47;;;2.70;;
22254;SDS011;11296;42.684;23.322;2023-03-12T00:20:23;3.97;;;3.00;;
22254;SDS011;11296;42.684;23.322;2023-03-12T00:22:50;4.80;;;2.50;;
22254;SDS011;11296;42.684;23.322;2023-03-12T00:25:16;5.90;;;3.20;;
22254;SDS011;11296;42.684;23.322;2023-03-12T00:27:41;6.33;;;2.60;;
22254;SDS011;11296;42.684;23.322;2023-03-12T00:30:07;4.13;;;3.10;;
22254;SDS011;11296;42.684;23.322;2023-03-12T00:32:35;9.27;;;3.23;;
22254;SDS011;11296;42.684;23.322;2023-03-12T00:35:03;4.27;;;3.23;;
22254;SDS011;11296;42.684;23.322;2023-03-12T00:37:30;4.13;;;2.70;;
22254;SDS011;11296;42.684;23.322;2023-03-12T00:39:57;6.17;;;2.67;;
22254;SDS011;11296;42.684;23.322;2023-03-12T00:42:26;6.43;;;3.57;;
22254;SDS011;11296;42.684;23.322;2023-03-12T00:44:52;4.33;;;3.50;;
22254;SDS011;11296;42.684;23.322;2023-03-12T00:47:18;5.27;;;3.60;;
22254;SDS011;11296;42.684;23.322;2023-03-12T00:49:44;3.73;;;3.17;;
22254;SDS011;11296;42.684;23.322;2023-03-12T00:52:10;8.60;;;3.53;;
22254;SDS011;11296;42.684;23.322;2023-03-12T00:54:35;4.70;;;3.60;;
22254;SDS011;11296;42.684;23.322;2023-03-12T00:57:02;4.70;;;3.60;;
22254;SDS011;11296;42.684;23.322;2023-03-12T00:59:28;6.10;;;3.60;;
22254;SDS011;11296;42.684;23.322;2023-03-12T01:01:54;5.87;;;3.90;;
22254;SDS011;11296;42.684;23.322;2023-03-12T01:04:19;9.97;;;3.83;;
22254;SDS011;11296;42.684;23.322;2023-03-12T01:06:45;4.53;;;3.53;;
22254;SDS011;11296;42.684;23.322;2023-03-12T01:09:11;6.87;;;3.80;;
22254;SDS011;11296;42.684;23.322;2023-03-12T01:11:37;4.63;;;3.93;;
22254;SDS011;11296;42.684;23.322;2023-03-12T01:14:03;5.47;;;3.40;;
22254;SDS011;11296;42.684;23.322;2023-03-12T01:16:30;4.40;;;3.83;;
22254;SDS011;11296;42.684;23.322;2023-03-12T01:18:57;5.70;;;3.43;;
22254;SDS011;11296;42.684;23.322;2023-03-12T01:21:24;5.10;;;3.70;;
22254;SDS011;11296;42.684;23.322;2023-03-12T01:23:51;5.83;;;3.87;;
22254;SDS011;11296;42.684;23.322;2023-03-12T01:26:17;4.10;;;3.70;;
22254;SDS011;11296;42.684;23.322;2023-03-12T01:28:42;6.83;;;3.73;;
22254;SDS011;11296;42.684;23.322;2023-03-12T01:31:13;5.43;;;3.70;;
22254;SDS011;11296;42.684;23.322;2023-03-12T01:33:40;5.43;;;3.90;;
22254;SDS011;11296;42.684;23.322;2023-03-12T01:36:16;4.43;;;3.53;;
22254;SDS011;11296;42.684;23.322;2023-03-12T01:38:44;3.37;;;2.97;;
22254;SDS011;11296;42.684;23.322;2023-03-12T01:41:10;4.23;;;3.67;;
22254;SDS011;11296;42.684;23.322;2023-03-12T01:43:36;3.80;;;3.40;;
22254;SDS011;11296;42.684;23.322;2023-03-12T01:51:15;4.27;;;3.50;;
22254;SDS011;11296;42.684;23.322;2023-03-12T01:53:44;4.77;;;3.90;;
22254;SDS011;11296;42.684;23.322;2023-03-12T01:56:15;5.30;;;3.80;;
22254;SDS011;11296;42.684;23.322;2023-03-12T01:58:47;6.73;;;4.47;;
22254;SDS011;11296;42.684;23.322;2023-03-12T02:01:15;6.43;;;3.73;;
22254;SDS011;11296;42.684;23.322;2023-03-12T02:03:43;6.60;;;3.93;;
22254;SDS011;11296;42.684;23.322;2023-03-12T02:06:12;4.50;;;3.80;;
22254;SDS011;11296;42.684;23.322;2023-03-12T02:08:43;5.03;;;3.90;;
22254;SDS011;11296;42.684;23.322;2023-03-12T02:11:12;6.60;;;4.13;;
22254;SDS011;11296;42.684;23.322;2023-03-12T02:13:38;4.40;;;3.90;;
22254;SDS011;11296;42.684;23.322;2023-03-12T02:16:04;4.33;;;3.70;;
22254;SDS011;11296;42.684;23.322;2023-03-12T02:18:32;4.40;;;3.50;;
22254;SDS011;11296;42.684;23.322;2023-03-12T02:21:17;4.87;;;3.90;;
22254;SDS011;11296;42.684;23.322;2023-03-12T02:26:31;3.73;;;3.33;;
22254;SDS011;11296;42.684;23.322;2023-03-12T02:29:00;3.53;;;3.17;;
22254;SDS011;11296;42.684;23.322;2023-03-12T02:31:37;4.83;;;4.17;;
22254;SDS011;11296;42.684;23.322;2023-03-12T02:34:07;4.77;;;3.60;;
22254;SDS011;11296;42.684;23.322;2023-03-12T02:36:34;3.90;;;3.10;;
22254;SDS011;11296;42.684;23.322;2023-03-12T02:39:00;5.43;;;3.47;;
22254;SDS011;11296;42.684;23.322;2023-03-12T02:41:45;4.77;;;3.13;;
22254;SDS011;11296;42.684;23.322;2023-03-12T02:44:19;7.50;;;3.47;;
22254;SDS011;11296;42.684;23.322;2023-03-12T02:46:50;6.17;;;3.50;;
22254;SDS011;11296;42.684;23.322;2023-03-12T02:49:22;5.83;;;3.50;;
22254;SDS011;11296;42.684;23.322;2023-03-12T02:51:50;3.73;;;3.40;;
22254;SDS011;11296;42.684;23.322;2023-03-12T02:54:17;6.27;;;3.67;;
22254;SDS011;11296;42.684;23.322;2023-03-12T02:56:44;5.07;;;3.10;;
22254;SDS011;11296;42.684;23.322;2023-03-12T02:59:10;4.67;;;2.87;;
22254;SDS011;11296;42.684;23.322;2023-03-12T03:01:40;3.70;;;3.27;;
22254;SDS011;11296;42.684;23.322;2023-03-12T03:04:08;4.17;;;3.20;;
22254;SDS011;11296;42.684;23.322;2023-03-12T03:06:38;6.10;;;3.70;;
22254;SDS011;11296;42.684;23.322;2023-03-12T03:09:06;4.00;;;3.60;;
22254;SDS011;11296;42.684;23.322;2023-03-12T03:11:32;5.43;;;3.50;;
22254;SDS011;11296;42.684;23.322;2023-03-12T03:14:01;7.93;;;4.10;;
22254;SDS011;11296;42.684;23.322;2023-03-12T03:16:29;4.60;;;3.20;;
22254;SDS011;11296;42.684;23.322;2023-03-12T03:18:54;4.57;;;3.20;;
22254;SDS011;11296;42.684;23.322;2023-03-12T03:21:20;3.47;;;2.70;;
22254;SDS011;11296;42.684;23.322;2023-03-12T03:23:47;4.80;;;3.40;;
22254;SDS011;11296;42.684;23.322;2023-03-12T03:26:16;4.50;;;3.20;;
22254;SDS011;11296;42.684;23.322;2023-03-12T03:28:43;4.13;;;3.27;;
22254;SDS011;11296;42.684;23.322;2023-03-12T03:31:09;2.23;;;1.57;;
22254;SDS011;11296;42.684;23.322;2023-03-12T03:33:38;3.03;;;2.73;;
22254;SDS011;11296;42.684;23.322;2023-03-12T03:36:06;4.30;;;2.50;;
22254;SDS011;11296;42.684;23.322;2023-03-12T03:38:36;3.77;;;2.90;;
22254;SDS011;11296;42.684;23.322;2023-03-12T03:41:03;3.17;;;2.87;;
22254;SDS011;11296;42.684;23.322;2023-03-12T03:43:31;3.87;;;3.40;;
22254;SDS011;11296;42.684;23.322;2023-03-12T03:45:58;3.57;;;2.97;;
22254;SDS011;11296;42.684;23.322;2023-03-12T03:48:25;3.07;;;1.70;;
22254;SDS011;11296;42.684;23.322;2023-03-12T03:50:51;5.00;;;3.17;;
22254;SDS011;11296;42.684;23.322;2023-03-12T03:53:17;3.33;;;3.00;;
22254;SDS011;11296;42.684;23.322;2023-03-12T03:55:44;3.97;;;2.60;;
22254;SDS011;11296;42.684;23.322;2023-03-12T03:58:11;4.93;;;3.03;;
22254;SDS011;11296;42.684;23.322;2023-03-12T04:00:39;3.13;;;2.07;;
22254;SDS011;11296;42.684;23.322;2023-03-12T04:03:05;3.53;;;2.63;;
22254;SDS011;11296;42.684;23.322;2023-03-12T04:05:33;3.00;;;2.47;;
22254;SDS011;11296;42.684;23.322;2023-03-12T04:07:59;2.87;;;2.27;;
22254;SDS011;11296;42.684;23.322;2023-03-12T04:10:29;3.47;;;2.70;;
22254;SDS011;11296;42.684;23.322;2023-03-12T04:12:55;3.13;;;2.50;;
22254;SDS011;11296;42.684;23.322;2023-03-12T04:15:21;3.23;;;2.43;;
22254;SDS011;11296;42.684;23.322;2023-03-12T04:17:48;2.60;;;1.97;;
22254;SDS011;11296;42.684;23.322;2023-03-12T04:20:14;3.80;;;1.90;;
22254;SDS011;11296;42.684;23.322;2023-03-12T04:22:40;2.37;;;2.07;;
22254;SDS011;11296;42.684;23.322;2023-03-12T04:25:07;2.37;;;1.93;;
22254;SDS011;11296;42.684;23.322;2023-03-12T04:27:33;2.53;;;1.80;;
22254;SDS011;11296;42.684;23.322;2023-03-12T04:29:59;3.33;;;2.03;;
22254;SDS011;11296;42.684;23.322;2023-03-12T04:32:25;2.10;;;1.77;;
22254;SDS011;11296;42.684;23.322;2023-03-12T04:34:51;3.30;;;2.20;;
22254;SDS011;11296;42.684;23.322;2023-03-12T04:37:17;2.90;;;2.10;;
22254;SDS011;11296;42.684;23.322;2023-03-12T04:39:43;2.40;;;1.83;;
22254;SDS011;11296;42.684;23.322;2023-03-12T04:42:10;5.47;;;2.30;;
22254;SDS011;11296;42.684;23.322;2023-03-12T04:44:37;2.60;;;1.70;;
22254;SDS011;11296;42.684;23.322;2023-03-12T04:47:04;2.70;;;2.00;;
22254;SDS011;11296;42.684;23.322;2023-03-12T04:49:31;2.67;;;1.77;;
22254;SDS011;11296;42.684;23.322;2023-03-12T04:51:57;2.90;;;2.10;;
22254;SDS011;11296;42.684;23.322;2023-03-12T04:54:22;2.93;;;2.07;;
22254;SDS011;11296;42.684;23.322;2023-03-12T04:56:49;4.90;;;1.97;;
22254;SDS011;11296;42.684;23.322;2023-03-12T04:59:15;3.80;;;2.47;;
22254;SDS011;11296;42.684;23.322;2023-03-12T05:01:43;2.97;;;2.00;;
22254;SDS011;11296;42.684;23.322;2023-03-12T05:04:16;3.30;;;2.20;;
22254;SDS011;11296;42.684;23.322;2023-03-12T05:06:41;2.20;;;1.90;;
22254;SDS011;11296;42.684;23.322;2023-03-12T05:09:07;2.03;;;1.70;;
22254;SDS011;11296;42.684;23.322;2023-03-12T05:11:33;3.03;;;1.90;;
22254;SDS011;11296;42.684;23.322;2023-03-12T05:14:00;4.10;;;2.40;;
22254;SDS011;11296;42.684;23.322;2023-03-12T05:16:26;4.30;;;1.97;;
22254;SDS011;11296;42.684;23.322;2023-03-12T05:18:52;2.67;;;1.90;;
22254;SDS011;11296;42.684;23.322;2023-03-12T05:21:20;4.37;;;2.50;;
22254;SDS011;11296;42.684;23.322;2023-03-12T05:23:50;3.20;;;2.27;;
22254;SDS011;11296;42.684;23.322;2023-03-12T05:28:48;3.37;;;2.40;;
22254;SDS011;11296;42.684;23.322;2023-03-12T05:31:15;4.33;;;2.40;;
22254;SDS011;11296;42.684;23.322;2023-03-12T05:33:41;1.57;;;1.43;;
22254;SDS011;11296;42.684;23.322;2023-03-12T05:36:08;2.20;;;1.83;;
22254;SDS011;11296;42.684;23.322;2023-03-12T05:38:35;2.57;;;2.00;;
22254;SDS011;11296;42.684;23.322;2023-03-12T05:41:01;2.77;;;2.00;;
22254;SDS011;11296;42.684;23.322;2023-03-12T05:43:30;2.80;;;2.10;;
22254;SDS011;11296;42.684;23.322;2023-03-12T05:46:00;4.27;;;2.47;;
22254;SDS011;11296;42.684;23.322;2023-03-12T05:48:29;3.87;;;2.30;;
22254;SDS011;11296;42.684;23.322;2023-03-12T05:50:56;4.03;;;2.33;;
22254;SDS011;11296;42.684;23.322;2023-03-12T05:53:22;5.17;;;2.40;;
22254;SDS011;11296;42.684;23.322;2023-03-12T05:55:49;5.47;;;2.43;;
22254;SDS011;11296;42.684;23.322;2023-03-12T05:58:16;5.03;;;2.10;;
22254;SDS011;11296;42.684;23.322;2023-03-12T06:00:42;2.30;;;2.00;;
22254;SDS011;11296;42.684;23.322;2023-03-12T06:03:10;1.97;;;1.70;;
22254;SDS011;11296;42.684;23.322;2023-03-12T06:05:36;2.77;;;2.23;;
22254;SDS011;11296;42.684;23.322;2023-03-12T06:08:05;3.40;;;1.77;;
22254;SDS011;11296;42.684;23.322;2023-03-12T06:10:31;5.03;;;2.10;;
22254;SDS011;11296;42.684;23.322;2023-03-12T06:13:00;3.30;;;2.13;;
22254;SDS011;11296;42.684;23.322;2023-03-12T06:15:34;1.77;;;1.33;;
22254;SDS011;11296;42.684;23.322;2023-03-12T06:18:08;4.40;;;2.17;;
22254;SDS011;11296;42.684;23.322;2023-03-12T06:20:49;2.60;;;1.70;;
22254;SDS011;11296;42.684;23.322;2023-03-12T06:23:16;4.23;;;2.03;;
22254;SDS011;11296;42.684;23.322;2023-03-12T06:25:53;0.90;;;0.87;;
22254;SDS011;11296;42.684;23.322;2023-03-12T06:28:28;2.53;;;1.77;;
22254;SDS011;11296;42.684;23.322;2023-03-12T07:15:34;1.50;;;1.20;;
22254;SDS011;11296;42.684;23.322;2023-03-12T07:18:10;3.57;;;1.80;;
22254;SDS011;11296;42.684;23.322;2023-03-12T07:33:46;3.30;;;1.97;;
22254;SDS011;11296;42.684;23.322;2023-03-12T07:36:39;3.97;;;2.63;;
22254;SDS011;11296;42.684;23.322;2023-03-12T07:39:05;2.90;;;1.60;;
22254;SDS011;11296;42.684;23.322;2023-03-12T07:44:54;2.90;;;1.70;;
22254;SDS011;11296;42.684;23.322;2023-03-12T07:47:24;2.30;;;1.60;;
22254;SDS011;11296;42.684;23.322;2023-03-12T07:50:43;3.47;;;1.70;;
22254;SDS011;11296;42.684;23.322;2023-03-12T07:53:13;2.80;;;1.63;;
22254;SDS011;11296;42.684;23.322;2023-03-12T07:55:55;1.97;;;1.40;;
22254;SDS011;11296;42.684;23.322;2023-03-12T07:58:42;3.53;;;2.03;;
22254;SDS011;11296;42.684;23.322;2023-03-12T08:01:11;3.27;;;1.70;;
22254;SDS011;11296;42.684;23.322;2023-03-12T08:03:38;3.80;;;1.97;;
22254;SDS011;11296;42.684;23.322;2023-03-12T08:06:04;1.40;;;1.20;;
22254;SDS011;11296;42.684;23.322;2023-03-12T08:08:30;1.90;;;1.43;;
22254;SDS011;11296;42.684;23.322;2023-03-12T08:10:59;1.87;;;1.60;;
22254;SDS011;11296;42.684;23.322;2023-03-12T08:13:42;3.23;;;1.40;;
22254;SDS011;11296;42.684;23.322;2023-03-12T08:16:14;4.50;;;1.80;;
22254;SDS011;11296;42.684;23.322;2023-03-12T08:19:01;7.00;;;2.13;;
22254;SDS011;11296;42.684;23.322;2023-03-12T08:21:27;2.00;;;1.40;;
22254;SDS011;11296;42.684;23.322;2023-03-12T08:23:54;2.77;;;1.70;;
22254;SDS011;11296;42.684;23.322;2023-03-12T08:26:23;3.87;;;1.97;;
22254;SDS011;11296;42.684;23.322;2023-03-12T08:28:50;2.70;;;1.90;;
22254;SDS011;11296;42.684;23.322;2023-03-12T08:31:19;3.83;;;2.30;;
22254;SDS011;11296;42.684;23.322;2023-03-12T08:33:48;2.63;;;1.93;;
22254;SDS011;11296;42.684;23.322;2023-03-12T08:36:14;1.60;;;1.50;;
22254;SDS011;11296;42.684;23.322;2023-03-12T08:38:40;2.07;;;1.50;;
22254;SDS011;11296;42.684;23.322;2023-03-12T08:41:09;2.63;;;1.80;;
22254;SDS011;11296;42.684;23.322;2023-03-12T08:43:40;2.10;;;1.70;;
22254;SDS011;11296;42.684;23.322;2023-03-12T08:46:08;3.27;;;1.97;;
22254;SDS011;11296;42.684;23.322;2023-03-12T08:48:34;2.43;;;1.43;;
22254;SDS011;11296;42.684;23.322;2023-03-12T08:51:01;2.17;;;1.80;;
22254;SDS011;11296;42.684;23.322;2023-03-12T08:53:32;1.83;;;1.40;;
22254;SDS011;11296;42.684;23.322;2023-03-12T08:55:59;3.60;;;1.93;;
22254;SDS011;11296;42.684;23.322;2023-03-12T08:58:26;2.33;;;1.90;;
22254;SDS011;11296;42.684;23.322;2023-03-12T09:00:52;2.90;;;1.70;;
22254;SDS011;11296;42.684;23.322;2023-03-12T09:03:22;2.83;;;2.30;;
22254;SDS011;11296;42.684;23.322;2023-03-12T09:05:49;2.80;;;2.07;;
22254;SDS011;11296;42.684;23.322;2023-03-12T09:08:26;3.47;;;1.83;;
22254;SDS011;11296;42.684;23.322;2023-03-12T09:10:53;2.77;;;1.93;;
22254;SDS011;11296;42.684;23.322;2023-03-12T09:13:18;2.70;;;1.83;;
22254;SDS011;11296;42.684;23.322;2023-03-12T09:15:44;3.47;;;1.90;;
22254;SDS011;11296;42.684;23.322;2023-03-12T09:18:13;2.93;;;2.17;;
22254;SDS011;11296;42.684;23.322;2023-03-12T09:20:40;3.70;;;2.17;;
22254;SDS011;11296;42.684;23.322;2023-03-12T09:23:07;3.70;;;2.30;;
22254;SDS011;11296;42.684;23.322;2023-03-12T09:25:33;3.37;;;2.10;;
22254;SDS011;11296;42.684;23.322;2023-03-12T09:27:59;3.00;;;2.10;;
22254;SDS011;11296;42.684;23.322;2023-03-12T09:30:29;3.47;;;2.27;;
22254;SDS011;11296;42.684;23.322;2023-03-12T09:32:58;1.87;;;1.50;;
22254;SDS011;11296;42.684;23.322;2023-03-12T09:35:23;4.90;;;2.03;;
22254;SDS011;11296;42.684;23.322;2023-03-12T09:37:49;2.17;;;1.80;;
22254;SDS011;11296;42.684;23.322;2023-03-12T09:40:21;3.03;;;2.43;;
22254;SDS011;11296;42.684;23.322;2023-03-12T09:42:57;2.87;;;2.23;;
22254;SDS011;11296;42.684;23.322;2023-03-12T09:45:26;2.80;;;2.13;;
22254;SDS011;11296;42.684;23.322;2023-03-12T09:47:57;2.27;;;2.07;;
22254;SDS011;11296;42.684;23.322;2023-03-12T09:50:29;2.57;;;2.23;;
22254;SDS011;11296;42.684;23.322;2023-03-12T09:55:50;2.23;;;2.03;;
22254;SDS011;11296;42.684;23.322;2023-03-12T09:58:22;2.20;;;1.93;;
22254;SDS011;11296;42.684;23.322;2023-03-12T10:00:58;4.10;;;2.80;;
22254;SDS011;11296;42.684;23.322;2023-03-12T10:03:34;3.03;;;2.00;;
22254;SDS011;11296;42.684;23.322;2023-03-12T10:06:17;2.07;;;1.87;;
22254;SDS011;11296;42.684;23.322;2023-03-12T10:20:50;2.83;;;2.20;;
22254;SDS011;11296;42.684;23.322;2023-03-12T10:29:38;2.37;;;1.87;;
22254;SDS011;11296;42.684;23.322;2023-03-12T10:32:01;2.37;;;1.90;;
22254;SDS011;11296;42.684;23.322;2023-03-12T10:34:33;4.57;;;2.20;;
22254;SDS011;11296;42.684;23.322;2023-03-12T10:40:00;2.20;;;2.00;;
22254;SDS011;11296;42.684;23.322;2023-03-12T10:42:27;2.43;;;2.13;;
22254;SDS011;11296;42.684;23.322;2023-03-12T10:44:58;2.10;;;1.90;;
22254;SDS011;11296;42.684;23.322;2023-03-12T10:47:35;1.97;;;1.70;;
22254;SDS011;11296;42.684;23.322;2023-03-12T10:52:52;4.03;;;2.00;;
22254;SDS011;11296;42.684;23.322;2023-03-12T10:55:44;3.17;;;2.00;;
22254;SDS011;11296;42.684;23.322;2023-03-12T10:58:23;2.10;;;1.63;;
22254;SDS011;11296;42.684;23.322;2023-03-12T11:00:53;2.50;;;1.90;;
22254;SDS011;11296;42.684;23.322;2023-03-12T11:03:32;2.57;;;2.10;;
22254;SDS011;11296;42.684;23.322;2023-03-12T11:05:59;2.10;;;1.90;;
22254;SDS011;11296;42.684;23.322;2023-03-12T11:08:35;3.30;;;2.13;;
22254;SDS011;11296;42.684;23.322;2023-03-12T11:11:02;4.10;;;1.97;;
22254;SDS011;11296;42.684;23.322;2023-03-12T11:13:38;2.27;;;1.80;;
22254;SDS011;11296;42.684;23.322;2023-03-12T11:19:03;1.93;;;1.77;;
22254;SDS011;11296;42.684;23.322;2023-03-12T11:21:29;3.77;;;2.00;;
22254;SDS011;11296;42.684;23.322;2023-03-12T11:31:58;2.13;;;1.80;;
22254;SDS011;11296;42.684;23.322;2023-03-12T11:34:30;2.53;;;1.70;;
22254;SDS011;11296;42.684;23.322;2023-03-12T11:50:43;2.03;;;1.83;;
22254;SDS011;11296;42.684;23.322;2023-03-12T11:53:18;2.90;;;1.73;;
22254;SDS011;11296;42.684;23.322;2023-03-12T12:05:11;2.37;;;1.80;;
22254;SDS011;11296;42.684;23.322;2023-03-12T12:37:21;2.90;;;1.90;;
22254;SDS011;11296;42.684;23.322;2023-03-12T12:40:17;2.87;;;1.90;;
22254;SDS011;11296;42.684;23.322;2023-03-12T12:42:57;2.93;;;1.90;;
22254;SDS011;11296;42.684;23.322;2023-03-12T12:45:39;2.20;;;2.00;;
22254;SDS011;11296;42.684;23.322;2023-03-12T12:48:10;1.90;;;1.70;;
22254;SDS011;11296;42.684;23.322;2023-03-12T12:50:42;2.83;;;1.80;;
22254;SDS011;11296;42.684;23.322;2023-03-12T13:01:45;4.50;;;1.77;;
22254;SDS011;11296;42.684;23.322;2023-03-12T13:04:15;1.80;;;1.70;;
22254;SDS011;11296;42.684;23.322;2023-03-12T13:09:40;2.30;;;2.10;;
22254;SDS011;11296;42.684;23.322;2023-03-12T13:12:11;2.70;;;2.37;;
22254;SDS011;11296;42.684;23.322;2023-03-12T13:14:41;1.97;;;1.83;;
22254;SDS011;11296;42.684;23.322;2023-03-12T13:17:20;2.00;;;1.73;;
22254;SDS011;11296;42.684;23.322;2023-03-12T13:19:50;2.27;;;1.93;;
22254;SDS011;11296;42.684;23.322;2023-03-12T13:30:57;2.80;;;1.90;;
22254;SDS011;11296;42.684;23.322;2023-03-12T13:38:54;2.20;;;2.00;;
22254;SDS011;11296;42.684;23.322;2023-03-12T13:44:27;1.80;;;1.70;;
22254;SDS011;11296;42.684;23.322;2023-03-12T13:50:03;3.20;;;2.00;;
22254;SDS011;11296;42.684;23.322;2023-03-12T13:58:14;1.80;;;1.70;;
22254;SDS011;11296;42.684;23.322;2023-03-12T14:16:57;2.00;;;1.70;;
22254;SDS011;11296;42.684;23.322;2023-03-12T14:19:27;2.30;;;1.97;;
22254;SDS011;11296;42.684;23.322;2023-03-12T14:21:55;2.27;;;1.83;;
22254;SDS011;11296;42.684;23.322;2023-03-12T14:24:26;1.90;;;1.70;;
22254;SDS011;11296;42.684;23.322;2023-03-12T14:26:54;2.53;;;2.10;;
22254;SDS011;11296;42.684;23.322;2023-03-12T14:29:27;2.73;;;2.03;;
22254;SDS011;11296;42.684;23.322;2023-03-12T14:31:54;2.57;;;1.83;;
22254;SDS011;11296;42.684;23.322;2023-03-12T14:34:27;2.80;;;2.00;;
22254;SDS011;11296;42.684;23.322;2023-03-12T14:37:02;2.33;;;2.13;;
22254;SDS011;11296;42.684;23.322;2023-03-12T14:39:53;2.37;;;1.73;;
22254;SDS011;11296;42.684;23.322;2023-03-12T14:42:26;2.70;;;2.00;;
22254;SDS011;11296;42.684;23.322;2023-03-12T14:44:56;2.33;;;2.13;;
22254;SDS011;11296;42.684;23.322;2023-03-12T14:47:25;3.40;;;2.00;;
22254;SDS011;11296;42.684;23.322;2023-03-12T14:49:51;2.73;;;1.87;;
22254;SDS011;11296;42.684;23.322;2023-03-12T14:52:21;1.90;;;1.70;;
22254;SDS011;11296;42.684;23.322;2023-03-12T14:54:57;2.60;;;1.93;;
22254;SDS011;11296;42.684;23.322;2023-03-12T14:57:23;2.20;;;2.00;;
22254;SDS011;11296;42.684;23.322;2023-03-12T14:59:54;5.10;;;1.90;;
22254;SDS011;11296;42.684;23.322;2023-03-12T15:02:23;2.20;;;2.00;;
22254;SDS011;11296;42.684;23.322;2023-03-12T15:04:51;2.43;;;1.90;;
22254;SDS011;11296;42.684;23.322;2023-03-12T15:07:27;4.87;;;2.10;;
22254;SDS011;11296;42.684;23.322;2023-03-12T15:09:59;2.03;;;1.83;;
22254;SDS011;11296;42.684;23.322;2023-03-12T15:13:39;2.07;;;1.70;;
22254;SDS011;11296;42.684;23.322;2023-03-12T15:16:06;3.43;;;1.90;;
22254;SDS011;11296;42.684;23.322;2023-03-12T15:18:32;2.10;;;1.83;;
22254;SDS011;11296;42.684;23.322;2023-03-12T15:20:58;2.17;;;1.83;;
22254;SDS011;11296;42.684;23.322;2023-03-12T15:23:27;1.70;;;1.50;;
22254;SDS011;11296;42.684;23.322;2023-03-12T15:26:08;2.20;;;2.00;;
22254;SDS011;11296;42.684;23.322;2023-03-12T15:31:51;4.07;;;1.90;;
22254;SDS011;11296;42.684;23.322;2023-03-12T15:34:32;2.90;;;1.83;;
22254;SDS011;11296;42.684;23.322;2023-03-12T15:37:00;2.17;;;1.77;;
22254;SDS011;11296;42.684;23.322;2023-03-12T15:39:30;1.90;;;1.70;;
22254;SDS011;11296;42.684;23.322;2023-03-12T15:42:06;2.30;;;2.00;;
22254;SDS011;11296;42.684;23.322;2023-03-12T15:44:41;2.50;;;2.10;;
22254;SDS011;11296;42.684;23.322;2023-03-12T15:47:16;2.90;;;2.00;;
22254;SDS011;11296;42.684;23.322;2023-03-12T15:49:47;3.10;;;2.27;;
22254;SDS011;11296;42.684;23.322;2023-03-12T15:57:43;3.73;;;2.27;;
22254;SDS011;11296;42.684;23.322;2023-03-12T16:00:14;2.90;;;2.40;;
22254;SDS011;11296;42.684;23.322;2023-03-12T16:03:13;2.83;;;2.27;;
22254;SDS011;11296;42.684;23.322;2023-03-12T16:05:41;3.40;;;2.40;;
22254;SDS011;11296;42.684;23.322;2023-03-12T16:08:20;4.70;;;2.30;;
22254;SDS011;11296;42.684;23.322;2023-03-12T16:10:50;3.60;;;2.23;;
22254;SDS011;11296;42.684;23.322;2023-03-12T16:13:17;1.97;;;1.60;;
22254;SDS011;11296;42.684;23.322;2023-03-12T16:15:45;2.77;;;2.20;;
22254;SDS011;11296;42.684;23.322;2023-03-12T16:33:57;2.47;;;1.47;;
22254;SDS011;11296;42.684;23.322;2023-03-12T16:36:23;3.53;;;2.20;;
22254;SDS011;11296;42.684;23.322;2023-03-12T16:38:49;4.63;;;3.20;;
22254;SDS011;11296;42.684;23.322;2023-03-12T16:41:17;27.33;;;14.07;;
22254;SDS011;11296;42.684;23.322;2023-03-12T16:43:45;3.17;;;2.37;;
22254;SDS011;11296;42.684;23.322;2023-03-12T16:46:14;4.47;;;2.63;;
22254;SDS011;11296;42.684;23.322;2023-03-12T16:48:43;5.70;;;2.63;;
22254;SDS011;11296;42.684;23.322;2023-03-12T16:51:12;9.13;;;3.73;;
22254;SDS011;11296;42.684;23.322;2023-03-12T16:53:39;4.57;;;3.03;;
22254;SDS011;11296;42.684;23.322;2023-03-12T16:56:06;5.33;;;2.47;;
22254;SDS011;11296;42.684;23.322;2023-03-12T16:58:38;3.03;;;2.50;;
22254;SDS011;11296;42.684;23.322;2023-03-12T17:01:17;6.40;;;3.43;;
22254;SDS011;11296;42.684;23.322;2023-03-12T17:03:45;4.97;;;2.90;;
22254;SDS011;11296;42.684;23.322;2023-03-12T17:06:15;5.53;;;2.90;;
22254;SDS011;11296;42.684;23.322;2023-03-12T17:08:44;3.30;;;2.67;;
22254;SDS011;11296;42.684;23.322;2023-03-12T17:13:49;3.60;;;2.90;;
22254;SDS011;11296;42.684;23.322;2023-03-12T17:16:18;4.20;;;2.90;;
22254;SDS011;11296;42.684;23.322;2023-03-12T17:18:43;4.57;;;2.93;;
22254;SDS011;11296;42.684;23.322;2023-03-12T17:21:10;13.27;;;7.47;;
22254;SDS011;11296;42.684;23.322;2023-03-12T17:23:55;6.40;;;4.00;;
22254;SDS011;11296;42.684;23.322;2023-03-12T17:26:21;4.80;;;3.83;;
22254;SDS011;11296;42.684;23.322;2023-03-12T17:28:47;4.43;;;2.83;;
22254;SDS011;11296;42.684;23.322;2023-03-12T17:31:12;4.43;;;3.30;;
22254;SDS011;11296;42.684;23.322;2023-03-12T17:33:38;4.20;;;3.03;;
22254;SDS011;11296;42.684;23.322;2023-03-12T17:36:05;5.93;;;3.10;;
22254;SDS011;11296;42.684;23.322;2023-03-12T17:38:33;4.70;;;3.17;;
22254;SDS011;11296;42.684;23.322;2023-03-12T17:40:59;4.43;;;3.53;;
22254;SDS011;11296;42.684;23.322;2023-03-12T17:43:27;3.77;;;3.20;;
22254;SDS011;11296;42.684;23.322;2023-03-12T17:45:53;9.17;;;4.10;;
22254;SDS011;11296;42.684;23.322;2023-03-12T17:48:19;6.33;;;3.80;;
22254;SDS011;11296;42.684;23.322;2023-03-12T17:50:48;5.73;;;4.00;;
22254;SDS011;11296;42.684;23.322;2023-03-12T17:53:14;5.83;;;3.77;;
22254;SDS011;11296;42.684;23.322;2023-03-12T17:55:43;7.93;;;4.60;;
22254;SDS011;11296;42.684;23.322;2023-03-12T17:58:14;7.23;;;4.67;;
22254;SDS011;11296;42.684;23.322;2023-03-12T18:00:39;7.17;;;4.63;;
22254;SDS011;11296;42.684;23.322;2023-03-12T18:03:06;23.43;;;9.20;;
22254;SDS011;11296;42.684;23.322;2023-03-12T18:05:32;5.10;;;3.73;;
22254;SDS011;11296;42.684;23.322;2023-03-12T18:07:58;10.77;;;5.63;;
22254;SDS011;11296;42.684;23.322;2023-03-12T18:10:24;6.50;;;4.27;;
22254;SDS011;11296;42.684;23.322;2023-03-12T18:12:50;7.20;;;4.10;;
22254;SDS011;11296;42.684;23.322;2023-03-12T18:15:18;6.83;;;4.90;;
22254;SDS011;11296;42.684;23.322;2023-03-12T18:17:44;4.83;;;3.93;;
22254;SDS011;11296;42.684;23.322;2023-03-12T18:20:13;5.93;;;3.70;;
22254;SDS011;11296;42.684;23.322;2023-03-12T18:22:40;5.60;;;3.80;;
22254;SDS011;11296;42.684;23.322;2023-03-12T18:25:08;6.43;;;3.53;;
22254;SDS011;11296;42.684;23.322;2023-03-12T18:27:38;8.73;;;4.23;;
22254;SDS011;11296;42.684;23.322;2023-03-12T18:30:04;10.53;;;5.07;;
22254;SDS011;11296;42.684;23.322;2023-03-12T18:32:35;20.77;;;11.33;;
22254;SDS011;11296;42.684;23.322;2023-03-12T18:35:01;11.97;;;7.53;;
22254;SDS011;11296;42.684;23.322;2023-03-12T18:37:28;10.63;;;6.57;;
22254;SDS011;11296;42.684;23.322;2023-03-12T18:39:54;11.37;;;6.73;;
22254;SDS011;11296;42.684;23.322;2023-03-12T18:42:19;10.97;;;6.37;;
22254;SDS011;11296;42.684;23.322;2023-03-12T18:44:47;11.80;;;6.17;;
22254;SDS011;11296;42.684;23.322;2023-03-12T18:47:23;10.03;;;6.00;;
22254;SDS011;11296;42.684;23.322;2023-03-12T18:49:59;9.67;;;5.87;;